createdAt,value
2023-05-24T00:00:43.970Z,1020.54
2023-05-24T00:01:43.791Z,1020.53
2023-05-24T00:02:43.844Z,1020.59
2023-05-24T00:03:44.077Z,1020.53
2023-05-24T00:04:43.733Z,1020.56
2023-05-24T00:05:43.744Z,1020.55
2023-05-24T00:06:43.730Z,1020.55
2023-05-24T00:07:43.725Z,1020.62
2023-05-24T00:08:43.665Z,1020.60
2023-05-24T00:09:43.744Z,1020.62
2023-05-24T00:10:43.889Z,1020.64
2023-05-24T00:11:43.657Z,1020.60
2023-05-24T00:12:43.655Z,1020.57
2023-05-24T00:13:43.620Z,1020.57
2023-05-24T00:14:43.629Z,1020.58
2023-05-24T00:15:43.636Z,1020.56
2023-05-24T00:16:43.604Z,1020.59
2023-05-24T00:17:43.632Z,1020.59
2023-05-24T00:18:43.567Z,1020.55
2023-05-24T00:19:43.628Z,1020.55
2023-05-24T00:20:43.873Z,1020.57
2023-05-24T00:21:43.510Z,1020.57
2023-05-24T00:22:43.513Z,1020.59
2023-05-24T00:23:43.527Z,1020.64
2023-05-24T00:24:43.450Z,1020.65
2023-05-24T00:25:43.438Z,1020.63
2023-05-24T00:26:43.453Z,1020.67
2023-05-24T00:27:43.456Z,1020.63
2023-05-24T00:28:43.449Z,1020.59
2023-05-24T00:29:43.424Z,1020.64
2023-05-24T00:30:43.553Z,1020.64
2023-05-24T00:31:43.453Z,1020.64
2023-05-24T00:32:43.406Z,1020.66
2023-05-24T00:33:43.359Z,1020.60
2023-05-24T00:34:43.363Z,1020.51
2023-05-24T00:35:43.335Z,1020.59
2023-05-24T00:36:43.318Z,1020.56
2023-05-24T00:37:51.341Z,1020.57
2023-05-24T00:38:43.322Z,1020.58
2023-05-24T00:39:43.322Z,1020.62
2023-05-24T00:40:43.491Z,1020.63
2023-05-24T00:41:43.278Z,1020.67
2023-05-24T00:42:43.241Z,1020.63
2023-05-24T00:43:43.268Z,1020.64
2023-05-24T00:44:43.220Z,1020.62
2023-05-24T00:45:43.366Z,1020.61
2023-05-24T00:46:43.184Z,1020.60
2023-05-24T00:47:43.210Z,1020.62
2023-05-24T00:48:43.200Z,1020.65
2023-05-24T00:49:43.193Z,1020.63
2023-05-24T00:50:43.457Z,1020.60
2023-05-24T00:51:43.153Z,1020.60
2023-05-24T00:52:43.170Z,1020.61
2023-05-24T00:53:43.118Z,1020.60
2023-05-24T00:54:43.137Z,1020.57
2023-05-24T00:55:43.067Z,1020.56
2023-05-24T00:56:43.056Z,1020.63
2023-05-24T00:57:43.060Z,1020.58
2023-05-24T00:58:43.081Z,1020.57
2023-05-24T00:59:43.080Z,1020.60
2023-05-24T01:00:43.248Z,1020.55
2023-05-24T01:01:43.113Z,1020.52
2023-05-24T01:02:43.132Z,1020.57
2023-05-24T01:03:43.032Z,1020.56
2023-05-24T01:04:43.022Z,1020.54
2023-05-24T01:05:42.999Z,1020.56
2023-05-24T01:06:42.907Z,1020.62
2023-05-24T01:07:42.933Z,1020.65
2023-05-24T01:08:42.926Z,1020.53
2023-05-24T01:09:42.964Z,1020.61
2023-05-24T01:10:43.166Z,1020.63
2023-05-24T01:11:42.867Z,1020.59
2023-05-24T01:12:42.887Z,1020.61
2023-05-24T01:13:42.835Z,1020.60
2023-05-24T01:14:42.939Z,1020.65
2023-05-24T01:15:42.954Z,1020.60
2023-05-24T01:16:42.807Z,1020.59
2023-05-24T01:17:42.850Z,1020.59
2023-05-24T01:18:42.792Z,1020.54
2023-05-24T01:19:42.758Z,1020.55
2023-05-24T01:20:43.122Z,1020.58
2023-05-24T01:21:42.731Z,1020.56
2023-05-24T01:22:42.763Z,1020.59
2023-05-24T01:23:42.714Z,1020.65
2023-05-24T01:24:42.728Z,1020.55
2023-05-24T01:25:42.678Z,1020.55
2023-05-24T01:26:42.692Z,1020.55
2023-05-24T01:27:42.656Z,1020.50
2023-05-24T01:28:42.653Z,1020.55
2023-05-24T01:29:42.695Z,1020.50
2023-05-24T01:30:42.891Z,1020.53
2023-05-24T01:31:42.691Z,1020.55
2023-05-24T01:32:42.682Z,1020.51
2023-05-24T01:33:42.599Z,1020.49
2023-05-24T01:34:42.606Z,1020.47
2023-05-24T01:35:42.589Z,1020.50
2023-05-24T01:36:42.555Z,1020.56
2023-05-24T01:37:42.506Z,1020.52
2023-05-24T01:38:42.568Z,1020.50
2023-05-24T01:39:42.524Z,1020.57
2023-05-24T01:40:42.756Z,1020.48
2023-05-24T01:41:42.434Z,1020.50
2023-05-24T01:42:42.458Z,1020.50
2023-05-24T01:43:42.456Z,1020.53
2023-05-24T01:44:42.457Z,1020.52
2023-05-24T01:45:42.391Z,1020.49
2023-05-24T01:46:42.473Z,1020.46
2023-05-24T01:47:42.455Z,1020.47
2023-05-24T01:48:42.426Z,1020.49
2023-05-24T01:49:42.364Z,1020.46
2023-05-24T01:50:42.498Z,1020.50
2023-05-24T01:51:42.417Z,1020.50
2023-05-24T01:52:42.336Z,1020.49
2023-05-24T01:53:42.272Z,1020.46
2023-05-24T01:54:42.277Z,1020.47
2023-05-24T01:55:42.302Z,1020.44
2023-05-24T01:56:42.301Z,1020.51
2023-05-24T01:57:42.259Z,1020.45
2023-05-24T01:58:42.227Z,1020.41
2023-05-24T01:59:42.247Z,1020.39
2023-05-24T02:00:42.449Z,1020.46
2023-05-24T02:01:42.236Z,1020.42
2023-05-24T02:02:42.286Z,1020.44
2023-05-24T02:03:42.161Z,1020.45
2023-05-24T02:04:42.200Z,1020.40
2023-05-24T02:05:42.144Z,1020.44
2023-05-24T02:06:42.149Z,1020.43
2023-05-24T02:07:42.114Z,1020.43
2023-05-24T02:08:42.133Z,1020.45
2023-05-24T02:09:42.157Z,1020.42
2023-05-24T02:10:42.266Z,1020.45
2023-05-24T02:11:42.078Z,1020.43
2023-05-24T02:12:42.111Z,1020.38
2023-05-24T02:13:42.027Z,1020.39
2023-05-24T02:14:42.064Z,1020.38
2023-05-24T02:15:42.140Z,1020.41
2023-05-24T02:16:42.069Z,1020.44
2023-05-24T02:17:42.013Z,1020.38
2023-05-24T02:18:41.991Z,1020.42
2023-05-24T02:19:41.978Z,1020.38
2023-05-24T02:20:42.231Z,1020.41
2023-05-24T02:21:41.936Z,1020.45
2023-05-24T02:22:41.966Z,1020.43
2023-05-24T02:23:41.966Z,1020.44
2023-05-24T02:24:41.889Z,1020.40
2023-05-24T02:25:41.929Z,1020.41
2023-05-24T02:26:41.929Z,1020.42
2023-05-24T02:27:41.827Z,1020.45
2023-05-24T02:28:41.921Z,1020.48
2023-05-24T02:29:41.871Z,1020.41
2023-05-24T02:30:41.995Z,1020.39
2023-05-24T02:31:41.842Z,1020.43
2023-05-24T02:32:41.891Z,1020.36
2023-05-24T02:33:41.811Z,1020.41
2023-05-24T02:34:41.814Z,1020.42
2023-05-24T02:35:41.791Z,1020.42
2023-05-24T02:36:41.749Z,1020.45
2023-05-24T02:37:41.734Z,1020.41
2023-05-24T02:38:41.720Z,1020.38
2023-05-24T02:39:41.736Z,1020.35
2023-05-24T02:40:41.841Z,1020.27
2023-05-24T02:41:41.708Z,1020.30
2023-05-24T02:42:41.663Z,1020.28
2023-05-24T02:43:41.634Z,1020.29
2023-05-24T02:44:41.660Z,1020.31
2023-05-24T02:45:41.631Z,1020.28
2023-05-24T02:46:41.711Z,1020.29
2023-05-24T02:47:41.636Z,1020.30
2023-05-24T02:48:41.631Z,1020.23
2023-05-24T02:49:41.566Z,1020.32
2023-05-24T02:50:41.830Z,1020.34
2023-05-24T02:51:41.539Z,1020.33
2023-05-24T02:52:41.564Z,1020.31
2023-05-24T02:53:41.529Z,1020.35
2023-05-24T02:54:41.514Z,1020.33
2023-05-24T02:55:41.474Z,1020.33
2023-05-24T02:56:41.572Z,1020.29
2023-05-24T02:57:41.463Z,1020.33
2023-05-24T02:58:41.464Z,1020.31
2023-05-24T02:59:41.464Z,1020.35
2023-05-24T03:00:41.593Z,1020.39
2023-05-24T03:01:41.530Z,1020.35
2023-05-24T03:02:41.689Z,1020.32
2023-05-24T03:03:41.641Z,1020.32
2023-05-24T03:04:41.401Z,1020.33
2023-05-24T03:05:41.362Z,1020.32
2023-05-24T03:06:41.416Z,1020.34
2023-05-24T03:07:41.319Z,1020.34
2023-05-24T03:08:41.319Z,1020.31
2023-05-24T03:09:41.310Z,1020.40
2023-05-24T03:10:41.504Z,1020.34
2023-05-24T03:11:41.315Z,1020.35
2023-05-24T03:12:41.273Z,1020.34
2023-05-24T03:13:41.262Z,1020.36
2023-05-24T03:14:41.270Z,1020.36
2023-05-24T03:15:41.236Z,1020.36
2023-05-24T03:16:41.249Z,1020.38
2023-05-24T03:17:41.297Z,1020.36
2023-05-24T03:18:41.173Z,1020.37
2023-05-24T03:19:41.192Z,1020.37
2023-05-24T03:20:41.556Z,1020.36
2023-05-24T03:21:41.155Z,1020.31
2023-05-24T03:22:41.147Z,1020.27
2023-05-24T03:23:41.141Z,1020.24
2023-05-24T03:24:41.166Z,1020.28
2023-05-24T03:25:41.100Z,1020.29
2023-05-24T03:26:41.109Z,1020.26
2023-05-24T03:27:41.050Z,1020.31
2023-05-24T03:28:41.113Z,1020.32
2023-05-24T03:29:41.055Z,1020.33
2023-05-24T03:30:41.196Z,1020.31
2023-05-24T03:31:41.110Z,1020.30
2023-05-24T03:32:41.067Z,1020.30
2023-05-24T03:33:41.042Z,1020.32
2023-05-24T03:34:40.987Z,1020.34
2023-05-24T03:35:40.999Z,1020.35
2023-05-24T03:36:41.006Z,1020.34
2023-05-24T03:37:40.953Z,1020.33
2023-05-24T03:38:40.982Z,1020.39
2023-05-24T03:39:40.920Z,1020.32
2023-05-24T03:40:41.130Z,1020.32
2023-05-24T03:41:40.897Z,1020.30
2023-05-24T03:42:40.907Z,1020.32
2023-05-24T03:43:40.908Z,1020.33
2023-05-24T03:44:40.867Z,1020.39
2023-05-24T03:45:41.006Z,1020.32
2023-05-24T03:46:41.001Z,1020.33
2023-05-24T03:47:40.895Z,1020.34
2023-05-24T03:48:40.819Z,1020.38
2023-05-24T03:49:40.790Z,1020.36
2023-05-24T03:50:41.080Z,1020.33
2023-05-24T03:51:40.768Z,1020.34
2023-05-24T03:52:40.768Z,1020.36
2023-05-24T03:53:40.699Z,1020.30
2023-05-24T03:54:40.723Z,1020.34
2023-05-24T03:55:40.684Z,1020.32
2023-05-24T03:56:40.758Z,1020.34
2023-05-24T03:57:40.680Z,1020.35
2023-05-24T03:58:40.700Z,1020.37
2023-05-24T03:59:41.409Z,1020.38
2023-05-24T04:00:40.843Z,1020.37
2023-05-24T04:01:40.649Z,1020.39
2023-05-24T04:02:40.744Z,1020.41
2023-05-24T04:03:40.709Z,1020.39
2023-05-24T04:04:40.601Z,1020.43
2023-05-24T04:05:40.584Z,1020.49
2023-05-24T04:06:40.634Z,1020.49
2023-05-24T04:07:40.564Z,1020.51
2023-05-24T04:08:40.554Z,1020.57
2023-05-24T04:09:40.501Z,1020.55
2023-05-24T04:10:40.757Z,1020.52
2023-05-24T04:11:40.545Z,1020.55
2023-05-24T04:12:40.512Z,1020.52
2023-05-24T04:13:40.525Z,1020.52
2023-05-24T04:14:40.469Z,1020.47
2023-05-24T04:15:40.446Z,1020.50
2023-05-24T04:16:40.493Z,1020.47
2023-05-24T04:17:40.555Z,1020.53
2023-05-24T04:18:40.561Z,1020.51
2023-05-24T04:19:40.408Z,1020.56
2023-05-24T04:20:40.443Z,1020.61
2023-05-24T04:21:40.359Z,1020.65
2023-05-24T04:22:40.356Z,1020.55
2023-05-24T04:23:40.302Z,1020.55
2023-05-24T04:24:40.393Z,1020.58
2023-05-24T04:25:40.310Z,1020.55
2023-05-24T04:26:40.369Z,1020.51
2023-05-24T04:27:40.302Z,1020.57
2023-05-24T04:28:40.258Z,1020.55
2023-05-24T04:29:40.275Z,1020.57
2023-05-24T04:30:40.435Z,1020.60
2023-05-24T04:31:40.303Z,1020.61
2023-05-24T04:32:40.291Z,1020.61
2023-05-24T04:33:40.220Z,1020.59
2023-05-24T04:34:40.183Z,1020.64
2023-05-24T04:35:40.191Z,1020.62
2023-05-24T04:36:40.288Z,1020.64
2023-05-24T04:37:40.126Z,1020.68
2023-05-24T04:38:40.152Z,1020.66
2023-05-24T04:39:40.145Z,1020.63
2023-05-24T04:40:40.342Z,1020.64
2023-05-24T04:41:40.131Z,1020.66
2023-05-24T04:42:40.076Z,1020.70
2023-05-24T04:43:40.073Z,1020.72
2023-05-24T04:44:40.133Z,1020.87
2023-05-24T04:45:40.063Z,1020.78
2023-05-24T04:46:40.095Z,1020.83
2023-05-24T04:47:40.107Z,1020.77
2023-05-24T04:48:40.040Z,1020.78
2023-05-24T04:49:40.013Z,1020.81
2023-05-24T04:50:40.138Z,1020.82
2023-05-24T04:51:39.985Z,1020.84
2023-05-24T04:52:40.036Z,1020.85
2023-05-24T04:53:39.981Z,1020.90
2023-05-24T04:54:39.956Z,1020.95
2023-05-24T04:55:39.930Z,1020.91
2023-05-24T04:56:39.895Z,1020.96
2023-05-24T04:57:39.874Z,1020.95
2023-05-24T04:58:39.969Z,1021.00
2023-05-24T04:59:39.860Z,1020.95
2023-05-24T05:00:39.994Z,1020.96
2023-05-24T05:01:39.951Z,1020.99
2023-05-24T05:02:39.957Z,1020.95
2023-05-24T05:03:39.911Z,1020.94
2023-05-24T05:04:39.837Z,1020.98
2023-05-24T05:05:39.789Z,1021.00
2023-05-24T05:06:39.801Z,1020.98
2023-05-24T05:07:39.769Z,1020.99
2023-05-24T05:08:39.787Z,1021.02
2023-05-24T05:09:39.755Z,1021.04
2023-05-24T05:10:39.725Z,1021.02
2023-05-24T05:11:39.808Z,1021.07
2023-05-24T05:12:39.693Z,1021.02
2023-05-24T05:13:39.728Z,1021.01
2023-05-24T05:14:39.712Z,1021.10
2023-05-24T05:15:41.595Z,1021.04
2023-05-24T05:16:39.753Z,1021.07
2023-05-24T05:17:39.712Z,1021.07
2023-05-24T05:18:39.668Z,1021.08
2023-05-24T05:19:39.601Z,1021.12
2023-05-24T05:20:39.796Z,1021.12
2023-05-24T05:21:39.623Z,1021.14
2023-05-24T05:22:39.583Z,1021.17
2023-05-24T05:23:39.587Z,1021.14
2023-05-24T05:24:39.525Z,1021.23
2023-05-24T05:25:39.530Z,1021.18
2023-05-24T05:26:39.536Z,1021.22
2023-05-24T05:27:39.529Z,1021.23
2023-05-24T05:28:39.504Z,1021.25
2023-05-24T05:29:39.503Z,1021.21
2023-05-24T05:30:39.469Z,1021.20
2023-05-24T05:31:39.581Z,1021.13
2023-05-24T05:32:39.525Z,1021.20
2023-05-24T05:33:39.539Z,1021.17
2023-05-24T05:34:39.414Z,1021.14
2023-05-24T05:35:39.422Z,1021.08
2023-05-24T05:36:39.440Z,1021.14
2023-05-24T05:37:39.369Z,1021.16
2023-05-24T05:38:39.361Z,1021.18
2023-05-24T05:39:39.391Z,1021.15
2023-05-24T05:40:39.394Z,1021.16
2023-05-24T05:41:39.325Z,1021.16
2023-05-24T05:42:39.364Z,1021.16
2023-05-24T05:43:39.330Z,1021.16
2023-05-24T05:44:39.333Z,1021.16
2023-05-24T05:45:39.333Z,1021.02
2023-05-24T05:46:39.363Z,1021.06
2023-05-24T05:47:39.298Z,1021.09
2023-05-24T05:48:39.211Z,1021.05
2023-05-24T05:49:39.217Z,1021.05
2023-05-24T05:50:39.232Z,1021.08
2023-05-24T05:51:39.204Z,1020.98
2023-05-24T05:52:39.192Z,1021.00
2023-05-24T05:53:39.203Z,1021.02
2023-05-24T05:54:39.156Z,1021.05
2023-05-24T05:55:39.160Z,1021.05
2023-05-24T05:56:39.096Z,1021.11
2023-05-24T05:57:39.179Z,1021.10
2023-05-24T05:58:39.141Z,1021.08
2023-05-24T05:59:39.118Z,1021.07
2023-05-24T06:00:39.049Z,1021.03
2023-05-24T06:01:39.095Z,1021.05
2023-05-24T06:02:39.123Z,1021.01
2023-05-24T06:03:39.333Z,1020.99
2023-05-24T06:04:39.218Z,1021.07
2023-05-24T06:05:39.012Z,1021.02
2023-05-24T06:06:38.992Z,1021.05
2023-05-24T06:07:39.059Z,1021.03
2023-05-24T06:08:39.007Z,1021.06
2023-05-24T06:09:39.022Z,1021.06
2023-05-24T06:10:38.998Z,1021.05
2023-05-24T06:11:38.970Z,1021.05
2023-05-24T06:12:38.913Z,1021.02
2023-05-24T06:13:38.916Z,1021.04
2023-05-24T06:14:38.886Z,1021.00
2023-05-24T06:15:38.996Z,1020.98
2023-05-24T06:16:38.950Z,1020.95
2023-05-24T06:17:38.847Z,1020.95
2023-05-24T06:18:39.164Z,1020.92
2023-05-24T06:19:38.830Z,1020.90
2023-05-24T06:20:38.942Z,1020.90
2023-05-24T06:21:38.800Z,1020.93
2023-05-24T06:22:38.779Z,1020.90
2023-05-24T06:23:38.774Z,1020.90
2023-05-24T06:24:38.790Z,1020.88
2023-05-24T06:25:38.776Z,1020.89
2023-05-24T06:26:38.754Z,1020.92
2023-05-24T06:27:38.813Z,1020.86
2023-05-24T06:28:38.753Z,1020.89
2023-05-24T06:29:38.707Z,1020.92
2023-05-24T06:30:38.852Z,1020.88
2023-05-24T06:31:38.751Z,1020.88
2023-05-24T06:32:38.980Z,1020.87
2023-05-24T06:33:39.846Z,1020.90
2023-05-24T06:34:38.716Z,1020.90
2023-05-24T06:35:38.685Z,1020.92
2023-05-24T06:36:38.623Z,1020.93
2023-05-24T06:37:38.746Z,1020.89
2023-05-24T06:38:46.517Z,1020.91
2023-05-24T06:39:38.547Z,1020.95
2023-05-24T06:40:38.572Z,1020.93
2023-05-24T06:41:40.355Z,1020.95
2023-05-24T06:42:38.566Z,1020.97
2023-05-24T06:43:38.541Z,1020.93
2023-05-24T06:44:38.475Z,1021.04
2023-05-24T06:45:38.465Z,1021.05
2023-05-24T06:46:38.514Z,1021.17
2023-05-24T06:47:38.572Z,1021.19
2023-05-24T06:48:38.592Z,1021.10
2023-05-24T06:49:38.443Z,1021.11
2023-05-24T06:50:40.242Z,1020.97
2023-05-24T06:51:38.448Z,1021.08
2023-05-24T06:52:38.461Z,1021.11
2023-05-24T06:53:38.388Z,1021.14
2023-05-24T06:54:38.371Z,1021.15
2023-05-24T06:55:38.351Z,1021.14
2023-05-24T06:56:38.365Z,1021.13
2023-05-24T06:57:38.387Z,1021.12
2023-05-24T06:58:38.312Z,1021.18
2023-05-24T06:59:38.315Z,1021.11
2023-05-24T07:00:38.282Z,1021.17
2023-05-24T07:01:38.314Z,1021.13
2023-05-24T07:02:38.294Z,1021.11
2023-05-24T07:03:38.244Z,1021.12
2023-05-24T07:04:38.288Z,1021.15
2023-05-24T07:05:38.268Z,1021.14
2023-05-24T07:06:38.232Z,1021.14
2023-05-24T07:07:38.206Z,1021.11
2023-05-24T07:08:38.153Z,1021.07
2023-05-24T07:09:38.152Z,1021.03
2023-05-24T07:10:38.149Z,1021.14
2023-05-24T07:11:38.230Z,1021.14
2023-05-24T07:12:38.158Z,1021.14
2023-05-24T07:13:38.122Z,1021.13
2023-05-24T07:14:38.121Z,1021.16
2023-05-24T07:15:38.111Z,1021.12
2023-05-24T07:16:38.106Z,1021.10
2023-05-24T07:17:38.098Z,1021.09
2023-05-24T07:18:38.045Z,1021.09
2023-05-24T07:19:38.040Z,1021.03
2023-05-24T07:20:38.114Z,1021.09
2023-05-24T07:21:38.008Z,1021.02
2023-05-24T07:22:38.040Z,1021.07
2023-05-24T07:23:37.983Z,1021.11
2023-05-24T07:24:37.956Z,1021.13
2023-05-24T07:25:37.970Z,1021.06
2023-05-24T07:26:37.970Z,1021.09
2023-05-24T07:27:37.921Z,1021.15
2023-05-24T07:28:37.940Z,1021.13
2023-05-24T07:29:37.902Z,1021.17
2023-05-24T07:30:37.922Z,1021.16
2023-05-24T07:31:37.893Z,1021.10
2023-05-24T07:32:38.036Z,1021.15
2023-05-24T07:33:37.952Z,1021.18
2023-05-24T07:34:37.851Z,1021.15
2023-05-24T07:35:37.841Z,1021.14
2023-05-24T07:36:37.789Z,1021.16
2023-05-24T07:37:37.876Z,1021.12
2023-05-24T07:38:37.834Z,1021.18
2023-05-24T07:39:37.762Z,1021.15
2023-05-24T07:40:37.775Z,1021.22
2023-05-24T07:41:37.763Z,1021.22
2023-05-24T07:42:37.728Z,1021.18
2023-05-24T07:43:37.796Z,1021.18
2023-05-24T07:44:37.707Z,1021.22
2023-05-24T07:45:37.714Z,1021.23
2023-05-24T07:46:37.765Z,1021.15
2023-05-24T07:47:37.771Z,1021.16
2023-05-24T07:48:37.655Z,1021.18
2023-05-24T07:49:37.643Z,1021.17
2023-05-24T07:50:37.625Z,1021.26
2023-05-24T07:51:37.626Z,1021.19
2023-05-24T07:52:37.628Z,1021.15
2023-05-24T07:53:37.694Z,1021.21
2023-05-24T07:54:37.566Z,1021.18
2023-05-24T07:55:37.581Z,1021.16
2023-05-24T07:56:37.531Z,1021.08
2023-05-24T07:57:37.627Z,1021.12
2023-05-24T07:58:37.529Z,1021.06
2023-05-24T07:59:37.535Z,1021.03
2023-05-24T08:00:37.589Z,1021.07
2023-05-24T08:01:37.592Z,1021.06
2023-05-24T08:02:37.530Z,1021.10
2023-05-24T08:03:37.498Z,1021.03
2023-05-24T08:04:37.450Z,1020.94
2023-05-24T08:05:37.468Z,1020.96
2023-05-24T08:06:37.451Z,1020.99
2023-05-24T08:07:37.420Z,1021.00
2023-05-24T08:08:37.728Z,1021.00
2023-05-24T08:09:37.388Z,1020.98
2023-05-24T08:10:37.380Z,1020.97
2023-05-24T08:11:37.374Z,1020.97
2023-05-24T08:12:37.342Z,1021.04
2023-05-24T08:13:37.330Z,1021.08
2023-05-24T08:14:37.308Z,1021.07
2023-05-24T08:15:37.327Z,1021.04
2023-05-24T08:16:37.303Z,1021.08
2023-05-24T08:17:37.392Z,1021.08
2023-05-24T08:18:37.236Z,1021.16
2023-05-24T08:19:37.273Z,1021.07
2023-05-24T08:20:37.264Z,1021.11
2023-05-24T08:21:37.222Z,1021.09
2023-05-24T08:22:37.191Z,1021.15
2023-05-24T08:23:37.202Z,1021.11
2023-05-24T08:24:37.144Z,1021.13
2023-05-24T08:25:37.206Z,1021.10
2023-05-24T08:26:37.139Z,1021.12
2023-05-24T08:27:37.190Z,1021.13
2023-05-24T08:28:37.171Z,1021.14
2023-05-24T08:29:37.107Z,1021.12
2023-05-24T08:30:37.129Z,1021.14
2023-05-24T08:31:37.144Z,1021.22
2023-05-24T08:32:37.109Z,1021.20
2023-05-24T08:33:37.086Z,1021.22
2023-05-24T08:34:37.019Z,1021.16
2023-05-24T08:35:37.052Z,1021.23
2023-05-24T08:36:37.032Z,1021.24
2023-05-24T08:37:37.033Z,1021.25
2023-05-24T08:38:36.975Z,1021.27
2023-05-24T08:39:36.993Z,1021.25
2023-05-24T08:40:36.948Z,1021.26
2023-05-24T08:41:36.949Z,1021.23
2023-05-24T08:42:36.917Z,1021.24
2023-05-24T08:43:36.946Z,1021.23
2023-05-24T08:44:36.899Z,1021.21
2023-05-24T08:45:36.950Z,1021.20
2023-05-24T08:46:36.962Z,1021.23
2023-05-24T08:47:36.916Z,1021.18
2023-05-24T08:48:36.953Z,1021.13
2023-05-24T08:49:36.898Z,1021.13
2023-05-24T08:50:36.838Z,1021.11
2023-05-24T08:51:36.841Z,1021.09
2023-05-24T08:52:36.857Z,1021.14
2023-05-24T08:53:36.781Z,1021.04
2023-05-24T08:54:36.809Z,1021.10
2023-05-24T08:55:36.785Z,1021.08
2023-05-24T08:56:36.765Z,1021.08
2023-05-24T08:57:36.733Z,1021.03
2023-05-24T08:58:36.699Z,1021.05
2023-05-24T08:59:36.722Z,1021.05
2023-05-24T09:00:36.733Z,1021.01
2023-05-24T09:01:36.924Z,1021.04
2023-05-24T09:02:36.712Z,1021.01
2023-05-24T09:03:36.809Z,1020.96
2023-05-24T09:04:36.689Z,1020.95
2023-05-24T09:05:36.684Z,1020.95
2023-05-24T09:06:36.619Z,1020.98
2023-05-24T09:07:36.673Z,1020.98
2023-05-24T09:08:36.615Z,1020.99
2023-05-24T09:09:36.591Z,1020.93
2023-05-24T09:10:49.258Z,1020.92
2023-05-24T09:11:39.483Z,1020.88
2023-05-24T09:12:38.787Z,1020.92
2023-05-24T09:13:36.547Z,1020.97
2023-05-24T09:14:36.503Z,1020.94
2023-05-24T09:15:36.611Z,1020.95
2023-05-24T09:16:36.528Z,1020.98
2023-05-24T09:17:36.772Z,1021.00
2023-05-24T09:18:36.492Z,1020.96
2023-05-24T09:19:36.454Z,1020.91
2023-05-24T09:20:36.477Z,1020.96
2023-05-24T09:21:36.600Z,1020.93
2023-05-24T09:22:39.577Z,1020.94
2023-05-24T09:23:36.381Z,1020.94
2023-05-24T09:24:36.429Z,1020.93
2023-05-24T09:25:36.386Z,1021.00
2023-05-24T09:26:36.395Z,1020.90
2023-05-24T09:27:36.380Z,1020.89
2023-05-24T09:28:36.338Z,1020.94
2023-05-24T09:29:36.326Z,1020.93
2023-05-24T09:30:36.317Z,1020.90
2023-05-24T09:31:36.314Z,1020.95
2023-05-24T09:32:36.338Z,1020.87
2023-05-24T09:33:36.344Z,1020.88
2023-05-24T09:34:36.263Z,1020.82
2023-05-24T09:35:36.220Z,1020.85
2023-05-24T09:36:36.216Z,1020.83
2023-05-24T09:37:36.220Z,1020.85
2023-05-24T09:38:36.835Z,1020.83
2023-05-24T09:39:36.162Z,1020.83
2023-05-24T09:40:36.224Z,1020.86
2023-05-24T09:41:36.361Z,1020.83
2023-05-24T09:42:36.188Z,1020.91
2023-05-24T09:43:36.197Z,1020.89
2023-05-24T09:44:36.124Z,1020.88
2023-05-24T09:45:36.135Z,1020.89
2023-05-24T09:46:36.164Z,1020.94
2023-05-24T09:47:36.143Z,1020.91
2023-05-24T09:48:36.117Z,1020.91
2023-05-24T09:49:36.068Z,1020.88
2023-05-24T09:50:36.029Z,1020.88
2023-05-24T09:51:36.097Z,1020.91
2023-05-24T09:52:36.188Z,1020.88
2023-05-24T09:53:36.028Z,1020.83
2023-05-24T09:54:36.028Z,1020.82
2023-05-24T09:55:35.988Z,1020.76
2023-05-24T09:56:36.038Z,1020.83
2023-05-24T09:57:35.978Z,1020.80
2023-05-24T09:58:35.991Z,1020.78
2023-05-24T09:59:35.916Z,1020.70
2023-05-24T10:00:35.944Z,1020.77
2023-05-24T10:01:35.926Z,1020.71
2023-05-24T10:02:45.110Z,1020.67
2023-05-24T10:03:36.991Z,1020.72
2023-05-24T10:04:35.940Z,1020.70
2023-05-24T10:05:35.869Z,1020.68
2023-05-24T10:06:35.927Z,1020.67
2023-05-24T10:07:35.908Z,1020.69
2023-05-24T10:08:35.838Z,1020.69
2023-05-24T10:09:35.800Z,1020.65
2023-05-24T10:10:35.783Z,1020.72
2023-05-24T10:11:35.826Z,1020.72
2023-05-24T10:12:35.800Z,1020.69
2023-05-24T10:13:35.966Z,1020.65
2023-05-24T10:14:35.781Z,1020.67
2023-05-24T10:15:35.727Z,1020.68
2023-05-24T10:16:35.743Z,1020.69
2023-05-24T10:17:35.758Z,1020.67
2023-05-24T10:18:35.707Z,1020.69
2023-05-24T10:19:35.681Z,1020.69
2023-05-24T10:20:35.683Z,1020.69
2023-05-24T10:21:35.764Z,1020.72
2023-05-24T10:22:35.644Z,1020.74
2023-05-24T10:23:35.658Z,1020.66
2023-05-24T10:24:35.638Z,1020.74
2023-05-24T10:25:35.599Z,1020.73
2023-05-24T10:26:35.649Z,1020.76
2023-05-24T10:27:35.598Z,1020.72
2023-05-24T10:28:35.557Z,1020.73
2023-05-24T10:29:35.518Z,1020.78
2023-05-24T10:30:35.637Z,1020.76
2023-05-24T10:31:35.629Z,1020.84
2023-05-24T10:32:35.534Z,1020.73
2023-05-24T10:33:35.527Z,1020.76
2023-05-24T10:34:35.478Z,1020.73
2023-05-24T10:35:35.425Z,1020.68
2023-05-24T10:36:35.481Z,1020.70
2023-05-24T10:37:35.417Z,1020.76
2023-05-24T10:38:35.499Z,1020.71
2023-05-24T10:39:35.442Z,1020.65
2023-05-24T10:40:35.400Z,1020.73
2023-05-24T10:41:35.382Z,1020.70
2023-05-24T10:42:35.383Z,1020.69
2023-05-24T10:43:35.391Z,1020.71
2023-05-24T10:44:35.365Z,1020.72
2023-05-24T10:45:35.330Z,1020.69
2023-05-24T10:46:35.399Z,1020.73
2023-05-24T10:47:36.958Z,1020.70
2023-05-24T10:48:35.321Z,1020.68
2023-05-24T10:49:35.301Z,1020.73
2023-05-24T10:50:35.283Z,1020.75
2023-05-24T10:51:35.257Z,1020.74
2023-05-24T10:52:35.310Z,1020.72
2023-05-24T10:53:35.275Z,1020.67
2023-05-24T10:54:35.249Z,1020.69
2023-05-24T10:55:35.220Z,1020.64
2023-05-24T10:56:35.186Z,1020.68
2023-05-24T10:57:35.174Z,1020.61
2023-05-24T10:58:35.196Z,1020.63
2023-05-24T10:59:35.243Z,1020.61
2023-05-24T11:00:36.196Z,1020.58
2023-05-24T11:01:35.193Z,1020.61
2023-05-24T11:02:35.183Z,1020.65
2023-05-24T11:03:35.082Z,1020.59
2023-05-24T11:04:35.100Z,1020.70
2023-05-24T11:05:35.116Z,1020.63
2023-05-24T11:06:35.051Z,1020.61
2023-05-24T11:07:35.076Z,1020.51
2023-05-24T11:08:35.115Z,1020.57
2023-05-24T11:09:35.153Z,1020.68
2023-05-24T11:10:35.006Z,1020.54
2023-05-24T11:11:34.987Z,1020.57
2023-05-24T11:12:35.054Z,1020.67
2023-05-24T11:13:34.980Z,1020.62
2023-05-24T11:14:34.975Z,1020.66
2023-05-24T11:15:34.942Z,1020.61
2023-05-24T11:16:34.991Z,1020.63
2023-05-24T11:17:34.962Z,1020.63
2023-05-24T11:18:34.901Z,1020.62
2023-05-24T11:19:34.876Z,1020.62
2023-05-24T11:20:34.977Z,1020.62
2023-05-24T11:21:34.852Z,1020.63
2023-05-24T11:22:34.956Z,1020.63
2023-05-24T11:23:37.401Z,1020.60
2023-05-24T11:24:34.830Z,1020.61
2023-05-24T11:25:34.788Z,1020.64
2023-05-24T11:26:34.803Z,1020.60
2023-05-24T11:27:34.785Z,1020.60
2023-05-24T11:28:34.913Z,1020.57
2023-05-24T11:29:36.853Z,1020.55
2023-05-24T11:30:34.754Z,1020.56
2023-05-24T11:31:36.762Z,1020.54
2023-05-24T11:32:34.778Z,1020.56
2023-05-24T11:33:34.696Z,1020.53
2023-05-24T11:34:34.667Z,1020.47
2023-05-24T11:35:34.682Z,1020.49
2023-05-24T11:36:34.680Z,1020.49
2023-05-24T11:37:45.509Z,1020.46
2023-05-24T11:38:35.682Z,1020.47
2023-05-24T11:39:34.637Z,1020.49
2023-05-24T11:40:34.603Z,1020.49
2023-05-24T11:41:34.659Z,1020.40
2023-05-24T11:42:34.591Z,1020.44
2023-05-24T11:43:34.565Z,1020.44
2023-05-24T11:44:34.568Z,1020.45
2023-05-24T11:45:34.561Z,1020.45
2023-05-24T11:46:34.515Z,1020.48
2023-05-24T11:47:34.593Z,1020.44
2023-05-24T11:48:35.445Z,1020.42
2023-05-24T11:49:34.466Z,1020.44
2023-05-24T11:50:42.198Z,1020.43
2023-05-24T11:51:35.474Z,1020.47
2023-05-24T11:52:34.471Z,1020.46
2023-05-24T11:53:34.456Z,1020.42
2023-05-24T11:54:34.438Z,1020.45
2023-05-24T11:55:34.399Z,1020.43
2023-05-24T11:56:34.582Z,1020.41
2023-05-24T11:57:34.386Z,1020.38
2023-05-24T11:58:34.426Z,1020.40
2023-05-24T11:59:34.352Z,1020.36
2023-05-24T12:00:34.347Z,1020.37
2023-05-24T12:01:34.306Z,1020.37
2023-05-24T12:02:34.411Z,1020.35
2023-05-24T12:03:34.563Z,1020.39
2023-05-24T12:04:34.327Z,1020.39
2023-05-24T12:05:34.280Z,1020.41